createdAt,value
2023-01-20T00:01:26.893Z,62.70
2023-01-20T00:03:56.157Z,62.13
2023-01-20T00:06:24.985Z,63.17
2023-01-20T00:08:53.276Z,64.53
2023-01-20T00:11:21.745Z,73.40
2023-01-20T00:13:49.245Z,73.13
2023-01-20T00:16:16.285Z,74.83
2023-01-20T00:18:43.340Z,66.57
2023-01-20T00:21:13.661Z,63.83
2023-01-20T00:23:41.346Z,62.63
2023-01-20T00:26:18.166Z,60.80
2023-01-20T00:28:46.673Z,62.13
2023-01-20T00:31:24.384Z,59.53
2023-01-20T00:33:53.733Z,61.17
2023-01-20T00:36:21.977Z,60.47
2023-01-20T00:38:49.811Z,58.77
2023-01-20T00:41:17.543Z,59.73
2023-01-20T00:43:45.094Z,59.03
2023-01-20T00:46:12.895Z,59.73
2023-01-20T00:48:40.229Z,59.60
2023-01-20T00:51:08.871Z,60.63
2023-01-20T00:53:36.850Z,60.73
2023-01-20T00:56:04.396Z,60.53
2023-01-20T00:58:31.664Z,60.37
2023-01-20T01:00:59.145Z,59.57
2023-01-20T01:03:29.980Z,59.53
2023-01-20T01:06:16.501Z,58.00
2023-01-20T01:08:44.472Z,57.63
2023-01-20T01:11:12.947Z,59.27
2023-01-20T01:13:40.449Z,57.53
2023-01-20T01:16:13.504Z,57.63
2023-01-20T01:18:41.975Z,58.50
2023-01-20T01:21:13.606Z,59.60
2023-01-20T01:23:40.771Z,59.17
2023-01-20T01:26:07.982Z,60.67
2023-01-20T01:28:35.100Z,61.57
2023-01-20T01:31:04.640Z,60.20
2023-01-20T01:33:32.526Z,57.60
2023-01-20T01:36:02.335Z,59.30
2023-01-20T01:38:30.059Z,57.07
2023-01-20T01:40:57.797Z,59.93
2023-01-20T01:43:26.079Z,60.67
2023-01-20T01:45:53.405Z,64.00
2023-01-20T01:48:38.579Z,66.47
2023-01-20T01:51:10.273Z,60.40
2023-01-20T01:53:46.008Z,65.03
2023-01-20T01:56:14.670Z,62.80
2023-01-20T01:58:47.043Z,58.67
2023-01-20T02:01:14.278Z,57.67
2023-01-20T02:03:58.491Z,59.07
2023-01-20T02:06:33.837Z,71.37
2023-01-20T02:09:03.304Z,89.93
2023-01-20T02:11:36.748Z,86.43
2023-01-20T02:14:04.511Z,98.40
2023-01-20T02:16:58.936Z,82.63
2023-01-20T02:20:01.284Z,59.43
2023-01-20T02:22:57.863Z,66.30
2023-01-20T02:25:48.978Z,69.90
2023-01-20T02:28:21.135Z,77.40
2023-01-20T02:31:26.961Z,83.97
2023-01-20T02:34:04.964Z,91.47
2023-01-20T02:36:42.267Z,84.37
2023-01-20T02:39:35.456Z,83.70
2023-01-20T02:42:11.223Z,81.97
2023-01-20T02:44:48.529Z,84.33
2023-01-20T02:47:55.857Z,95.23
2023-01-20T02:50:28.193Z,246.43
2023-01-20T02:52:58.923Z,356.67
2023-01-20T02:55:41.216Z,235.53
2023-01-20T02:58:21.500Z,99.17
2023-01-20T03:00:58.641Z,75.07
2023-01-20T03:03:38.697Z,80.87
2023-01-20T03:06:25.428Z,72.30
2023-01-20T03:08:56.115Z,75.23
2023-01-20T03:11:23.268Z,59.60
2023-01-20T03:14:11.694Z,65.97
2023-01-20T03:16:39.797Z,57.40
2023-01-20T03:19:06.944Z,56.40
2023-01-20T03:21:35.142Z,57.30
2023-01-20T03:24:04.905Z,55.87
2023-01-20T03:26:32.084Z,57.23
2023-01-20T03:29:03.665Z,55.70
2023-01-20T03:31:42.191Z,58.27
2023-01-20T03:34:16.167Z,58.27
2023-01-20T03:36:44.695Z,56.63
2023-01-20T03:39:12.197Z,56.73
2023-01-20T03:41:56.590Z,58.90
2023-01-20T03:45:06.636Z,58.03
2023-01-20T03:48:09.026Z,57.57
2023-01-20T03:50:56.303Z,58.60
2023-01-20T03:53:45.472Z,57.27
2023-01-20T03:56:50.235Z,58.80
2023-01-20T03:59:20.409Z,57.23
2023-01-20T04:01:48.766Z,57.50
2023-01-20T04:04:18.771Z,56.90
2023-01-20T04:06:50.364Z,59.93
2023-01-20T04:09:29.292Z,65.73
2023-01-20T04:11:56.457Z,63.47
2023-01-20T04:14:23.910Z,62.07
2023-01-20T04:16:58.175Z,60.87
2023-01-20T04:19:26.155Z,64.60
2023-01-20T04:22:52.562Z,63.90
2023-01-20T04:25:32.587Z,63.07
2023-01-20T04:27:59.715Z,64.10
2023-01-20T04:30:26.791Z,65.07
2023-01-20T04:32:53.815Z,65.97
2023-01-20T04:35:21.242Z,64.13
2023-01-20T04:37:48.243Z,59.90
2023-01-20T04:40:15.521Z,58.27
2023-01-20T04:42:42.569Z,60.03
2023-01-20T04:45:15.980Z,58.97
2023-01-20T04:47:44.215Z,58.67
2023-01-20T04:50:12.502Z,58.60
2023-01-20T04:52:39.809Z,57.90
2023-01-20T04:55:07.531Z,59.83
2023-01-20T04:57:34.671Z,60.60
2023-01-20T05:00:01.817Z,58.97
2023-01-20T05:02:29.095Z,59.80
2023-01-20T05:04:56.264Z,62.70
2023-01-20T05:07:23.435Z,60.37
2023-01-20T05:09:50.439Z,82.73
2023-01-20T05:12:17.864Z,80.80
2023-01-20T05:14:44.878Z,59.80
2023-01-20T05:17:11.898Z,60.00
2023-01-20T05:19:39.192Z,61.20
2023-01-20T05:22:06.262Z,61.53
2023-01-20T05:24:33.347Z,60.80
2023-01-20T05:27:01.742Z,62.00
2023-01-20T05:29:29.541Z,59.97
2023-01-20T05:31:56.860Z,61.00
2023-01-20T05:34:24.385Z,61.13
2023-01-20T05:36:53.648Z,62.73
2023-01-20T05:39:21.833Z,63.03
2023-01-20T05:41:49.011Z,64.40
2023-01-20T05:44:16.908Z,65.90
2023-01-20T05:46:44.068Z,65.93
2023-01-20T05:49:14.362Z,63.43
2023-01-20T05:51:41.569Z,61.13
2023-01-20T05:54:08.630Z,63.80
2023-01-20T05:56:35.835Z,61.77
2023-01-20T05:59:03.026Z,61.60
2023-01-20T06:01:30.184Z,61.63
2023-01-20T06:03:57.284Z,60.50
2023-01-20T06:06:24.379Z,61.97
2023-01-20T06:08:53.122Z,60.40
2023-01-20T06:11:20.858Z,61.03
2023-01-20T06:13:48.825Z,62.73
2023-01-20T06:16:18.356Z,59.23
2023-01-20T06:18:45.586Z,60.47
2023-01-20T06:21:12.666Z,61.53
2023-01-20T06:23:39.940Z,60.60
2023-01-20T06:26:11.985Z,62.93
2023-01-20T06:28:39.566Z,63.23
2023-01-20T06:31:17.133Z,62.17
2023-01-20T06:33:44.654Z,61.90
2023-01-20T06:36:14.142Z,60.93
2023-01-20T06:38:41.232Z,61.87
2023-01-20T06:41:10.922Z,63.50
2023-01-20T06:43:40.299Z,63.17
2023-01-20T06:46:11.893Z,61.90
2023-01-20T06:48:39.046Z,61.90
2023-01-20T06:51:20.888Z,61.33
2023-01-20T06:53:48.154Z,61.00
2023-01-20T06:56:16.396Z,60.43
2023-01-20T06:58:44.877Z,60.87
2023-01-20T07:01:14.780Z,59.97
2023-01-20T07:03:46.260Z,60.33
2023-01-20T07:06:22.952Z,58.43
2023-01-20T07:08:50.554Z,59.77
2023-01-20T07:11:18.034Z,60.77
2023-01-20T07:13:45.608Z,58.90
2023-01-20T07:16:15.675Z,60.27
2023-01-20T07:18:44.477Z,58.97
2023-01-20T07:21:12.491Z,58.97
2023-01-20T07:23:39.997Z,58.90
2023-01-20T07:26:14.180Z,59.77
2023-01-20T07:28:41.650Z,60.37
2023-01-20T07:31:22.255Z,59.77
2023-01-20T07:33:50.427Z,59.90
2023-01-20T07:36:18.615Z,60.20
2023-01-20T07:38:50.615Z,58.77
2023-01-20T07:41:19.985Z,60.40
2023-01-20T07:43:50.691Z,58.73
2023-01-20T07:46:18.747Z,60.47
2023-01-20T07:48:46.501Z,61.50
2023-01-20T07:51:15.353Z,58.50
2023-01-20T07:53:48.224Z,59.00
2023-01-20T07:56:28.134Z,58.43
2023-01-20T07:58:55.741Z,58.50
2023-01-20T08:01:30.841Z,58.93
2023-01-20T08:04:02.512Z,56.93
2023-01-20T08:06:30.484Z,57.83
2023-01-20T08:09:01.986Z,60.23
2023-01-20T08:11:29.918Z,59.43
2023-01-20T08:13:57.317Z,57.17
2023-01-20T08:16:24.835Z,58.27
2023-01-20T08:18:54.913Z,58.17
2023-01-20T08:21:24.716Z,57.20
2023-01-20T08:23:52.345Z,58.77
2023-01-20T08:26:19.905Z,57.43
2023-01-20T08:28:47.602Z,57.80
2023-01-20T08:31:19.189Z,57.33
2023-01-20T08:33:47.304Z,58.07
2023-01-20T08:36:28.331Z,58.20
2023-01-20T08:39:02.580Z,57.47
2023-01-20T08:41:35.056Z,58.17
2023-01-20T08:44:05.126Z,57.47
2023-01-20T08:46:32.337Z,58.00
2023-01-20T08:48:59.643Z,58.63
2023-01-20T08:51:32.297Z,57.40
2023-01-20T08:54:00.336Z,57.47
2023-01-20T08:56:28.749Z,57.23
2023-01-20T08:58:59.852Z,57.33
2023-01-20T09:01:30.523Z,64.37
2023-01-20T09:04:05.883Z,58.13
2023-01-20T09:06:42.842Z,67.83
2023-01-20T09:09:10.588Z,56.23
2023-01-20T09:11:39.172Z,55.97
2023-01-20T09:14:06.307Z,56.80
2023-01-20T09:16:33.790Z,61.80
2023-01-20T09:19:01.298Z,56.13
2023-01-20T09:21:28.712Z,56.60
2023-01-20T09:23:55.848Z,58.33
2023-01-20T09:26:35.456Z,57.27
2023-01-20T09:29:09.593Z,55.47
2023-01-20T09:31:58.299Z,57.73
2023-01-20T09:34:29.513Z,55.80
2023-01-20T09:37:19.138Z,56.90
2023-01-20T09:40:05.823Z,55.53
2023-01-20T09:43:33.997Z,56.47
2023-01-20T09:46:15.588Z,55.97
2023-01-20T09:49:43.202Z,56.13
2023-01-20T09:52:44.753Z,55.20
2023-01-20T09:55:24.661Z,55.80
2023-01-20T09:58:11.280Z,55.77
2023-01-20T10:00:41.580Z,55.23
2023-01-20T10:03:53.234Z,56.73
2023-01-20T10:06:40.494Z,55.47
2023-01-20T10:09:33.736Z,54.20
2023-01-20T10:12:21.695Z,53.57
2023-01-20T10:15:01.001Z,54.50
2023-01-20T10:18:00.534Z,54.27
2023-01-20T10:20:47.039Z,54.50
2023-01-20T10:23:43.058Z,55.07
2023-01-20T10:26:38.838Z,54.20
2023-01-20T10:29:13.652Z,54.43
2023-01-20T10:31:53.648Z,55.17
2023-01-20T10:34:22.490Z,52.40
2023-01-20T10:37:09.761Z,53.80
2023-01-20T10:39:58.918Z,54.03
2023-01-20T10:42:28.552Z,54.83
2023-01-20T10:44:56.167Z,54.87
2023-01-20T10:47:46.619Z,56.07
2023-01-20T10:51:44.431Z,56.40
2023-01-20T10:54:41.304Z,54.30
2023-01-20T10:57:13.987Z,55.03
2023-01-20T10:59:51.804Z,55.23
2023-01-20T11:02:38.122Z,55.60
2023-01-20T11:05:28.265Z,55.83
2023-01-20T11:07:58.928Z,55.20
2023-01-20T11:10:30.280Z,55.23
2023-01-20T11:13:00.611Z,54.60
2023-01-20T11:15:36.036Z,55.93
2023-01-20T11:18:29.232Z,58.73
2023-01-20T11:21:00.979Z,60.43
2023-01-20T11:23:32.407Z,60.30
2023-01-20T11:26:09.966Z,55.03
2023-01-20T11:28:56.872Z,55.80
2023-01-20T11:32:01.079Z,57.00
2023-01-20T11:34:30.087Z,56.77
2023-01-20T11:37:10.919Z,57.40
2023-01-20T11:39:44.160Z,56.77
2023-01-20T11:42:24.870Z,55.93
2023-01-20T11:45:20.913Z,55.90
2023-01-20T11:48:16.448Z,54.37
2023-01-20T11:50:50.500Z,55.93
2023-01-20T11:53:31.759Z,55.30
2023-01-20T11:56:23.924Z,56.00
2023-01-20T11:58:59.097Z,55.60
2023-01-20T12:02:01.658Z,57.40
2023-01-20T12:05:05.916Z,56.17
2023-01-20T12:07:42.048Z,56.17
2023-01-20T12:10:30.771Z,55.93
2023-01-20T12:13:17.259Z,55.30
2023-01-20T12:15:53.111Z,54.67
2023-01-20T12:19:01.559Z,55.93
2023-01-20T12:21:42.399Z,54.30
2023-01-20T12:24:58.885Z,55.27
2023-01-20T12:27:28.333Z,55.50
2023-01-20T12:30:04.035Z,55.60
2023-01-20T12:32:33.304Z,55.53
2023-01-20T12:35:00.796Z,54.50
2023-01-20T12:37:44.921Z,55.97
2023-01-20T12:40:42.847Z,54.53
2023-01-20T12:44:02.224Z,53.93
2023-01-20T12:47:19.938Z,53.97
2023-01-20T12:50:15.042Z,53.73
2023-01-20T12:53:26.554Z,56.03
2023-01-20T12:56:59.628Z,55.23
2023-01-20T13:00:16.303Z,57.53
2023-01-20T13:03:01.853Z,76.73
2023-01-20T13:05:46.879Z,53.70
2023-01-20T13:09:33.469Z,53.43
2023-01-20T13:13:04.525Z,53.37
2023-01-20T13:15:37.535Z,54.03
2023-01-20T13:18:19.077Z,55.00
2023-01-20T13:20:46.981Z,52.40
2023-01-20T13:23:23.842Z,55.30
2023-01-20T13:25:52.608Z,53.03
2023-01-20T13:28:24.303Z,53.87
2023-01-20T13:30:54.812Z,52.40
2023-01-20T13:33:40.664Z,52.93
2023-01-20T13:36:24.669Z,52.77
2023-01-20T13:39:29.516Z,52.57
2023-01-20T13:41:57.064Z,52.63
2023-01-20T13:44:44.344Z,52.30
2023-01-20T13:47:11.542Z,52.20
2023-01-20T13:49:44.441Z,51.43
2023-01-20T13:52:12.085Z,55.80
2023-01-20T13:54:45.890Z,52.47
2023-01-20T13:57:27.984Z,53.03
2023-01-20T13:59:56.297Z,53.37
2023-01-20T14:02:28.623Z,52.37
2023-01-20T14:04:56.290Z,53.00
2023-01-20T14:07:30.575Z,53.13
2023-01-20T14:10:00.335Z,52.70
2023-01-20T14:12:27.921Z,53.33
2023-01-20T14:14:55.501Z,53.27
2023-01-20T14:17:24.582Z,51.87
2023-01-20T14:19:55.690Z,51.73
2023-01-20T14:22:29.983Z,50.40
2023-01-20T14:25:00.028Z,51.03
2023-01-20T14:27:32.137Z,50.47
2023-01-20T14:30:16.785Z,66.37
2023-01-20T14:32:44.364Z,50.93
2023-01-20T14:35:41.144Z,50.00
2023-01-20T14:38:18.525Z,50.03
2023-01-20T14:40:49.591Z,50.67
2023-01-20T14:43:22.600Z,52.00
2023-01-20T14:45:51.820Z,50.93
2023-01-20T14:48:33.434Z,51.77
2023-01-20T14:51:04.061Z,52.57
2023-01-20T14:53:31.250Z,51.80
2023-01-20T14:56:04.826Z,53.17
2023-01-20T14:58:32.101Z,51.57
2023-01-20T15:01:03.843Z,49.77
2023-01-20T15:03:32.071Z,52.37
2023-01-20T15:06:09.103Z,50.63
2023-01-20T15:08:37.323Z,51.67
2023-01-20T15:11:20.538Z,51.03
2023-01-20T15:14:00.242Z,51.77
2023-01-20T15:16:44.096Z,50.97
2023-01-20T15:19:14.556Z,51.53
2023-01-20T15:21:50.992Z,52.00
2023-01-20T15:24:37.469Z,52.20
2023-01-20T15:27:23.256Z,52.07
2023-01-20T15:30:20.442Z,70.17
2023-01-20T15:32:49.179Z,51.73
2023-01-20T15:35:20.395Z,51.50
2023-01-20T15:37:47.577Z,52.47
2023-01-20T15:40:23.953Z,52.73
2023-01-20T15:42:51.846Z,51.93
2023-01-20T15:45:19.608Z,52.70
2023-01-20T15:47:47.415Z,52.03
2023-01-20T15:50:24.268Z,52.13
2023-01-20T15:52:51.474Z,53.43
2023-01-20T15:55:19.717Z,53.97
2023-01-20T15:57:51.479Z,53.47
2023-01-20T16:00:22.384Z,51.93
2023-01-20T16:02:49.848Z,52.70
2023-01-20T16:05:17.944Z,53.03
2023-01-20T16:07:47.482Z,51.57
2023-01-20T16:10:19.590Z,52.40
2023-01-20T16:12:47.667Z,52.30
2023-01-20T16:15:18.692Z,51.57
2023-01-20T16:17:46.289Z,52.50
2023-01-20T16:20:32.059Z,52.77
2023-01-20T16:22:59.499Z,51.13
2023-01-20T16:25:27.202Z,50.77
2023-01-20T16:27:54.667Z,51.93
2023-01-20T16:30:23.309Z,52.57
2023-01-20T16:32:50.763Z,51.60
2023-01-20T16:35:20.284Z,51.33
2023-01-20T16:37:48.506Z,52.17
2023-01-20T16:40:19.403Z,51.47
2023-01-20T16:42:47.624Z,50.53
2023-01-20T16:45:26.574Z,50.97
2023-01-20T16:47:54.800Z,51.70
2023-01-20T16:50:22.539Z,50.77
2023-01-20T16:52:49.947Z,50.53
2023-01-20T16:55:17.372Z,50.77
2023-01-20T16:57:44.435Z,49.63
2023-01-20T17:00:12.349Z,51.87
2023-01-20T17:02:39.455Z,51.13
2023-01-20T17:05:08.312Z,51.17
2023-01-20T17:07:35.921Z,52.27
2023-01-20T17:10:03.478Z,51.87
2023-01-20T17:12:30.916Z,52.00
2023-01-20T17:14:58.341Z,51.63
2023-01-20T17:17:25.426Z,50.97
2023-01-20T17:19:52.522Z,53.47
2023-01-20T17:22:20.008Z,53.20
2023-01-20T17:24:47.103Z,52.40
2023-01-20T17:27:14.127Z,51.97
2023-01-20T17:29:41.294Z,51.83
2023-01-20T17:32:08.390Z,51.43
2023-01-20T17:34:35.803Z,52.40
2023-01-20T17:37:02.854Z,51.47
2023-01-20T17:39:30.269Z,52.80
2023-01-20T17:41:57.693Z,50.97
2023-01-20T17:44:24.754Z,52.50
2023-01-20T17:46:51.785Z,50.77
2023-01-20T17:49:18.874Z,50.63
2023-01-20T17:51:45.984Z,50.77
2023-01-20T17:54:13.514Z,50.83
2023-01-20T17:56:40.644Z,51.53
2023-01-20T17:59:07.815Z,51.10
2023-01-20T18:01:34.965Z,50.00
2023-01-20T18:04:04.749Z,50.80
2023-01-20T18:06:35.616Z,51.57
2023-01-20T18:09:03.296Z,52.37
2023-01-20T18:11:35.157Z,50.70
2023-01-20T18:14:04.007Z,51.93
2023-01-20T18:16:35.484Z,49.53
2023-01-20T18:19:03.269Z,50.80
2023-01-20T18:21:36.270Z,50.27
2023-01-20T18:24:07.435Z,50.37
2023-01-20T18:26:37.524Z,50.57
2023-01-20T18:29:14.369Z,50.53
2023-01-20T18:31:41.550Z,51.43
2023-01-20T18:34:12.035Z,50.77
2023-01-20T18:36:42.493Z,51.40
2023-01-20T18:39:18.878Z,65.77
2023-01-20T18:41:46.276Z,76.67
2023-01-20T18:44:13.550Z,58.30
2023-01-20T18:46:41.117Z,81.70
2023-01-20T18:49:12.268Z,57.53
2023-01-20T18:51:39.791Z,52.87
2023-01-20T18:54:11.722Z,50.77
2023-01-20T18:56:39.623Z,50.17
2023-01-20T18:59:07.692Z,51.07
2023-01-20T19:01:39.637Z,52.27
2023-01-20T19:04:10.696Z,50.13
2023-01-20T19:06:43.855Z,50.23
2023-01-20T19:09:11.896Z,50.43
2023-01-20T19:11:41.314Z,50.60
2023-01-20T19:14:13.571Z,51.07
2023-01-20T19:16:45.204Z,51.10
2023-01-20T19:19:13.587Z,50.63
2023-01-20T19:21:41.026Z,50.17
2023-01-20T19:24:18.796Z,50.33
2023-01-20T19:26:46.575Z,50.13
2023-01-20T19:29:17.261Z,49.43
2023-01-20T19:31:45.227Z,50.03
2023-01-20T19:34:12.936Z,49.27
2023-01-20T19:36:40.848Z,50.17
2023-01-20T19:39:08.413Z,49.90
2023-01-20T19:41:36.380Z,49.63
2023-01-20T19:44:06.753Z,49.83
2023-01-20T19:46:36.974Z,50.00
2023-01-20T19:49:04.859Z,50.70
2023-01-20T19:51:32.407Z,49.77
2023-01-20T19:54:01.544Z,55.47
2023-01-20T19:56:33.177Z,53.40
2023-01-20T19:59:01.663Z,50.43
2023-01-20T20:01:32.700Z,50.87
2023-01-20T20:04:08.286Z,56.43
2023-01-20T20:06:39.416Z,49.77
2023-01-20T20:09:19.435Z,55.23
2023-01-20T20:11:48.133Z,50.10
2023-01-20T20:14:19.603Z,52.83
2023-01-20T20:16:47.248Z,50.00
2023-01-20T20:19:18.301Z,48.80
2023-01-20T20:21:45.937Z,52.77
2023-01-20T20:24:15.366Z,65.10
2023-01-20T20:26:44.560Z,51.60
2023-01-20T20:29:13.046Z,50.97
2023-01-20T20:31:41.064Z,48.87
2023-01-20T20:34:13.445Z,49.30
2023-01-20T20:36:40.594Z,49.33
2023-01-20T20:39:08.275Z,50.03
2023-01-20T20:41:36.712Z,49.57
2023-01-20T20:44:04.227Z,50.20
2023-01-20T20:46:32.287Z,49.43
2023-01-20T20:49:01.308Z,50.33
2023-01-20T20:51:31.889Z,50.13
2023-01-20T20:54:02.795Z,49.87
2023-01-20T20:56:34.493Z,49.63
2023-01-20T20:59:03.597Z,49.03
2023-01-20T21:01:33.545Z,50.27
2023-01-20T21:04:03.085Z,49.63
2023-01-20T21:06:30.986Z,49.13
2023-01-20T21:08:58.869Z,72.83
2023-01-20T21:11:26.242Z,54.47
2023-01-20T21:13:53.790Z,49.97
2023-01-20T21:16:23.343Z,50.57
2023-01-20T21:18:52.679Z,50.07
2023-01-20T21:21:20.530Z,49.60
2023-01-20T21:23:56.049Z,49.53
2023-01-20T21:26:27.127Z,49.53
2023-01-20T21:28:56.542Z,49.73
2023-01-20T21:31:26.822Z,50.23
2023-01-20T21:33:58.349Z,49.50
2023-01-20T21:36:27.525Z,49.00
2023-01-20T21:38:55.178Z,48.80
2023-01-20T21:41:22.668Z,48.80
2023-01-20T21:44:09.093Z,47.77
2023-01-20T21:46:39.896Z,48.07
2023-01-20T21:49:26.669Z,48.17
2023-01-20T21:52:13.503Z,48.27
2023-01-20T21:54:41.502Z,48.00
2023-01-20T21:57:09.179Z,48.87
2023-01-20T21:59:37.037Z,48.23
2023-01-20T22:02:04.224Z,48.37
2023-01-20T22:04:32.904Z,49.47
2023-01-20T22:07:00.381Z,49.33
2023-01-20T22:09:27.498Z,49.20
2023-01-20T22:11:54.621Z,48.50
2023-01-20T22:14:21.702Z,49.30
2023-01-20T22:16:48.807Z,49.87
2023-01-20T22:19:16.337Z,48.63
2023-01-20T22:21:43.637Z,48.00
2023-01-20T22:24:11.198Z,48.50
2023-01-20T22:26:38.734Z,47.77
2023-01-20T22:29:05.946Z,47.80
2023-01-20T22:31:34.292Z,48.20
2023-01-20T22:34:06.416Z,48.43
2023-01-20T22:36:34.306Z,48.97
2023-01-20T22:39:02.303Z,48.23
2023-01-20T22:41:29.589Z,49.00
2023-01-20T22:43:57.021Z,48.30
2023-01-20T22:46:27.375Z,48.30
2023-01-20T22:48:57.243Z,48.60
2023-01-20T22:51:28.385Z,48.27
2023-01-20T22:54:01.920Z,48.67
2023-01-20T22:56:32.506Z,48.53
2023-01-20T22:59:00.298Z,49.17
2023-01-20T23:01:33.989Z,48.13
2023-01-20T23:04:04.923Z,48.10
2023-01-20T23:06:35.441Z,47.83
2023-01-20T23:09:12.225Z,48.07
2023-01-20T23:11:40.233Z,49.23
2023-01-20T23:14:10.749Z,48.43
2023-01-20T23:16:38.673Z,49.07
2023-01-20T23:19:06.824Z,49.10
2023-01-20T23:21:33.950Z,49.93
2023-01-20T23:24:01.507Z,48.87
2023-01-20T23:26:30.584Z,49.60
2023-01-20T23:28:58.222Z,49.10
2023-01-20T23:31:26.275Z,50.23
2023-01-20T23:33:54.520Z,50.03
2023-01-20T23:36:26.549Z,49.53
2023-01-20T23:38:55.845Z,48.93
2023-01-20T23:41:24.006Z,49.47
2023-01-20T23:43:51.694Z,49.90
2023-01-20T23:46:19.013Z,49.67
2023-01-20T23:48:47.129Z,50.03
2023-01-20T23:51:14.494Z,49.53
2023-01-20T23:53:42.199Z,49.93
2023-01-20T23:56:19.332Z,48.57
2023-01-20T23:58:47.151Z,50.10
